Mulberry Grove, IL

1:25 PM CST on March 04, 2015 (GMT -0600)
MesoWest I-70@ IL 140 IL US ILDOT | Change Station
CLOSE
Current Station
Personal Weather Station
Location: Mulberry Grove, IL
Elevation: 498 ft
Nearby Weather Stations

Elev 498 ft 38.92 °N, 89.25 °W | Updated 76 days ago

Cloudy
Cloudy
21 °F
Feels Like 9 °F
N
13
Wind Variable Wind from North
Gusts 18 mph

Today
High -- | Low -- °F
--% Chance of Precip.
Yesterday
High -- | Low -- °F
Precip. -- in
6:25 AM 5:52 PM
Waxing Gibbous, 99% visible
Pressure 30.18 in
Visibility 7.0 miles
Clouds Scattered Clouds 2300 ft
Overcast 3100 ft
Windchill 9 °F
Dew Point 14 °F
Humidity 75%
Rainfall -999.00 in
Snow Depth Not available.
UV 2 out of 12
Pollen 1.90 out of 12
Air Quality Not available.
Flu Activity Not available.
METAR KSLO 041915Z AUTO 34016G19KT 7SM -SN SCT023 OVC031 M05/M11 A3018 RMK AO2 T10511111

More Conditions Fewer Conditions

Pressure 30.18 in
Visibility 7.0 miles
Clouds Scattered Clouds 2300 ft
Overcast 3100 ft
Windchill 9 °F
Dew Point 14 °F
Humidity 75%
Rainfall -999.00 in
Snow Depth Not available.
UV 2 out of 12
Pollen 1.90 out of 12
Air Quality Not available.
Flu Activity Not available.
METAR KSLO 041915Z AUTO 34016G19KT 7SM -SN SCT023 OVC031 M05/M11 A3018 RMK AO2 T10511111

More Conditions Fewer Conditions

10-Day Weather Forecast

Almanac

Astronomy

Mar. 04, 2015 Rise Set
Actual Time
Civil Twilight
Nautical Twilight
Astronomical Twilight
Moon
Length of Visible Light
Length of Day
Tomorrow will be .
, % of the Moon is Illuminated

Today's Extremes

State Highs State Lows

Community

WunderPhotos

Upload Photos

1,802,552 photos uploaded!

WunderBlogs® & News

Nearby

Air Quality

  Air Quality AQ Index Pollutant
Not available.

Snow Depth

Station Depth Elevation

Earthquake Activity

City Distance Mag. Time & Date
Minimum magnitude displayed is 2.5.

Coastal Water Temperatures

Place Temperature

Nearby Weather Stations